sensor_id;sensor_type;location;lat;lon;timestamp;temperature;humidity
75321;DHT22;68337;52.196;5.660;2023-06-14T00:00:21;18.40;69.20
75321;DHT22;68337;52.196;5.660;2023-06-14T00:02:48;18.40;69.40
75321;DHT22;68337;52.196;5.660;2023-06-14T00:05:13;18.30;69.30
75321;DHT22;68337;52.196;5.660;2023-06-14T00:07:41;18.40;69.60
75321;DHT22;68337;52.196;5.660;2023-06-14T00:10:11;18.30;69.70
75321;DHT22;68337;52.196;5.660;2023-06-14T00:12:37;18.30;70.40
75321;DHT22;68337;52.196;5.660;2023-06-14T00:15:05;18.30;70.60
75321;DHT22;68337;52.196;5.660;2023-06-14T00:17:31;18.20;70.80
75321;DHT22;68337;52.196;5.660;2023-06-14T00:20:00;18.10;71.60
75321;DHT22;68337;52.196;5.660;2023-06-14T00:22:26;18.10;72.00
75321;DHT22;68337;52.196;5.660;2023-06-14T00:24:54;18.00;72.20
75321;DHT22;68337;52.196;5.660;2023-06-14T00:27:20;18.00;72.80
75321;DHT22;68337;52.196;5.660;2023-06-14T00:29:45;17.90;72.90
75321;DHT22;68337;52.196;5.660;2023-06-14T00:32:11;17.90;73.40
75321;DHT22;68337;52.196;5.660;2023-06-14T00:34:37;17.90;73.40
75321;DHT22;68337;52.196;5.660;2023-06-14T00:37:03;17.90;73.90
75321;DHT22;68337;52.196;5.660;2023-06-14T00:39:29;17.80;74.30
75321;DHT22;68337;52.196;5.660;2023-06-14T00:41:55;17.70;74.70
75321;DHT22;68337;52.196;5.660;2023-06-14T00:44:20;17.70;74.60
75321;DHT22;68337;52.196;5.660;2023-06-14T00:46:47;17.70;74.80
75321;DHT22;68337;52.196;5.660;2023-06-14T00:49:16;17.70;74.60
75321;DHT22;68337;52.196;5.660;2023-06-14T00:51:43;17.70;74.60
75321;DHT22;68337;52.196;5.660;2023-06-14T00:54:09;17.70;75.10
75321;DHT22;68337;52.196;5.660;2023-06-14T00:56:36;17.60;75.30
75321;DHT22;68337;52.196;5.660;2023-06-14T00:59:03;17.60;75.70
75321;DHT22;68337;52.196;5.660;2023-06-14T01:01:30;17.50;76.20
75321;DHT22;68337;52.196;5.660;2023-06-14T01:03:59;17.50;76.90
75321;DHT22;68337;52.196;5.660;2023-06-14T01:06:34;17.50;76.90
75321;DHT22;68337;52.196;5.660;2023-06-14T01:09:27;17.40;77.40
75321;DHT22;68337;52.196;5.660;2023-06-14T01:12:11;17.30;78.10
75321;DHT22;68337;52.196;5.660;2023-06-14T01:14:39;17.30;78.20
75321;DHT22;68337;52.196;5.660;2023-06-14T01:17:05;17.20;78.50
75321;DHT22;68337;52.196;5.660;2023-06-14T01:19:33;17.20;78.50
75321;DHT22;68337;52.196;5.660;2023-06-14T01:22:01;17.20;79.00
75321;DHT22;68337;52.196;5.660;2023-06-14T01:24:27;17.10;79.20
75321;DHT22;68337;52.196;5.660;2023-06-14T01:26:57;17.10;79.50
75321;DHT22;68337;52.196;5.660;2023-06-14T01:29:25;17.00;80.00
75321;DHT22;68337;52.196;5.660;2023-06-14T01:31:53;17.00;80.00
75321;DHT22;68337;52.196;5.660;2023-06-14T01:34:20;17.00;80.50
75321;DHT22;68337;52.196;5.660;2023-06-14T01:36:47;16.90;80.50
75321;DHT22;68337;52.196;5.660;2023-06-14T01:39:14;16.90;81.00
75321;DHT22;68337;52.196;5.660;2023-06-14T01:41:41;16.80;81.40
75321;DHT22;68337;52.196;5.660;2023-06-14T01:44:08;16.80;81.60
75321;DHT22;68337;52.196;5.660;2023-06-14T01:46:35;16.70;82.40
75321;DHT22;68337;52.196;5.660;2023-06-14T01:49:01;16.60;82.60
75321;DHT22;68337;52.196;5.660;2023-06-14T01:51:27;16.60;83.00
75321;DHT22;68337;52.196;5.660;2023-06-14T01:53:53;16.60;83.30
75321;DHT22;68337;52.196;5.660;2023-06-14T01:56:19;16.50;83.70
75321;DHT22;68337;52.196;5.660;2023-06-14T01:58:45;16.50;84.20
75321;DHT22;68337;52.196;5.660;2023-06-14T02:01:11;16.50;84.20
75321;DHT22;68337;52.196;5.660;2023-06-14T02:03:38;16.50;84.50
75321;DHT22;68337;52.196;5.660;2023-06-14T02:06:04;16.40;84.70
75321;DHT22;68337;52.196;5.660;2023-06-14T02:08:30;16.40;85.20
75321;DHT22;68337;52.196;5.660;2023-06-14T02:10:55;16.40;85.50
75321;DHT22;68337;52.196;5.660;2023-06-14T02:13:21;16.20;86.10
75321;DHT22;68337;52.196;5.660;2023-06-14T02:15:47;16.20;86.30
75321;DHT22;68337;52.196;5.660;2023-06-14T02:18:16;16.30;86.80
75321;DHT22;68337;52.196;5.660;2023-06-14T02:20:42;16.20;86.60
75321;DHT22;68337;52.196;5.660;2023-06-14T02:23:08;16.10;87.10
75321;DHT22;68337;52.196;5.660;2023-06-14T02:25:33;16.10;87.20
75321;DHT22;68337;52.196;5.660;2023-06-14T02:27:59;16.00;88.40
75321;DHT22;68337;52.196;5.660;2023-06-14T02:30:25;16.00;88.90
75321;DHT22;68337;52.196;5.660;2023-06-14T02:32:51;15.90;89.70
75321;DHT22;68337;52.196;5.660;2023-06-14T02:35:18;15.90;89.10
75321;DHT22;68337;52.196;5.660;2023-06-14T02:37:46;15.90;89.80
75321;DHT22;68337;52.196;5.660;2023-06-14T02:40:12;15.80;90.00
75321;DHT22;68337;52.196;5.660;2023-06-14T02:42:37;15.80;90.30
75321;DHT22;68337;52.196;5.660;2023-06-14T02:45:04;15.70;90.90
75321;DHT22;68337;52.196;5.660;2023-06-14T02:47:30;15.70;90.90
75321;DHT22;68337;52.196;5.660;2023-06-14T02:49:56;15.60;91.00
75321;DHT22;68337;52.196;5.660;2023-06-14T02:52:21;15.60;91.20
75321;DHT22;68337;52.196;5.660;2023-06-14T02:54:47;15.60;91.50
75321;DHT22;68337;52.196;5.660;2023-06-14T02:57:13;15.50;91.70
75321;DHT22;68337;52.196;5.660;2023-06-14T02:59:38;15.50;91.70
75321;DHT22;68337;52.196;5.660;2023-06-14T03:02:05;15.50;91.90
75321;DHT22;68337;52.196;5.660;2023-06-14T03:04:30;15.50;92.10
75321;DHT22;68337;52.196;5.660;2023-06-14T03:07:03;15.40;92.40
75321;DHT22;68337;52.196;5.660;2023-06-14T03:09:37;15.40;92.70
75321;DHT22;68337;52.196;5.660;2023-06-14T03:12:04;15.40;92.80
75321;DHT22;68337;52.196;5.660;2023-06-14T03:14:32;15.50;92.90
75321;DHT22;68337;52.196;5.660;2023-06-14T03:16:58;15.50;93.00
75321;DHT22;68337;52.196;5.660;2023-06-14T03:19:26;15.40;93.10
75321;DHT22;68337;52.196;5.660;2023-06-14T03:21:52;15.40;93.30
75321;DHT22;68337;52.196;5.660;2023-06-14T03:24:21;15.30;93.60
75321;DHT22;68337;52.196;5.660;2023-06-14T03:26:47;15.30;93.70
75321;DHT22;68337;52.196;5.660;2023-06-14T03:29:13;15.30;93.80
75321;DHT22;68337;52.196;5.660;2023-06-14T03:31:59;15.30;94.10
75321;DHT22;68337;52.196;5.660;2023-06-14T03:34:26;15.30;94.30
75321;DHT22;68337;52.196;5.660;2023-06-14T03:36:52;15.20;94.60
75321;DHT22;68337;52.196;5.660;2023-06-14T03:39:18;15.20;94.70
75321;DHT22;68337;52.196;5.660;2023-06-14T03:41:45;15.20;95.00
75321;DHT22;68337;52.196;5.660;2023-06-14T03:44:11;15.30;95.00
75321;DHT22;68337;52.196;5.660;2023-06-14T03:46:36;15.20;95.10
75321;DHT22;68337;52.196;5.660;2023-06-14T03:49:02;15.20;95.40
75321;DHT22;68337;52.196;5.660;2023-06-14T03:51:28;15.20;95.70
75321;DHT22;68337;52.196;5.660;2023-06-14T03:53:54;15.20;95.70
75321;DHT22;68337;52.196;5.660;2023-06-14T03:56:21;15.20;96.00
75321;DHT22;68337;52.196;5.660;2023-06-14T03:58:47;15.20;96.20
75321;DHT22;68337;52.196;5.660;2023-06-14T04:01:13;15.20;96.50
75321;DHT22;68337;52.196;5.660;2023-06-14T04:03:41;15.10;96.70
75321;DHT22;68337;52.196;5.660;2023-06-14T04:06:07;15.20;97.00
75321;DHT22;68337;52.196;5.660;2023-06-14T04:08:36;15.20;97.20
75321;DHT22;68337;52.196;5.660;2023-06-14T04:11:05;15.20;97.40
75321;DHT22;68337;52.196;5.660;2023-06-14T04:13:30;15.10;97.70
75321;DHT22;68337;52.196;5.660;2023-06-14T04:15:57;15.20;97.60
75321;DHT22;68337;52.196;5.660;2023-06-14T04:18:23;15.20;97.80
75321;DHT22;68337;52.196;5.660;2023-06-14T04:20:49;15.30;97.90
75321;DHT22;68337;52.196;5.660;2023-06-14T04:23:17;15.30;97.80
75321;DHT22;68337;52.196;5.660;2023-06-14T04:25:47;15.30;98.10
75321;DHT22;68337;52.196;5.660;2023-06-14T04:28:15;15.30;98.40
75321;DHT22;68337;52.196;5.660;2023-06-14T04:30:49;15.30;98.30
75321;DHT22;68337;52.196;5.660;2023-06-14T04:33:15;15.30;98.40
75321;DHT22;68337;52.196;5.660;2023-06-14T04:35:42;15.40;98.70
75321;DHT22;68337;52.196;5.660;2023-06-14T04:38:12;15.40;98.70
75321;DHT22;68337;52.196;5.660;2023-06-14T04:40:38;15.50;98.80
75321;DHT22;68337;52.196;5.660;2023-06-14T04:43:11;15.50;98.70
75321;DHT22;68337;52.196;5.660;2023-06-14T04:45:40;15.60;98.80
75321;DHT22;68337;52.196;5.660;2023-06-14T04:48:06;15.80;98.60
75321;DHT22;68337;52.196;5.660;2023-06-14T04:50:32;15.80;98.20
75321;DHT22;68337;52.196;5.660;2023-06-14T04:52:58;15.90;98.40
75321;DHT22;68337;52.196;5.660;2023-06-14T04:55:28;16.00;98.00
75321;DHT22;68337;52.196;5.660;2023-06-14T04:57:54;16.20;97.80
75321;DHT22;68337;52.196;5.660;2023-06-14T05:00:20;16.40;97.50
75321;DHT22;68337;52.196;5.660;2023-06-14T05:02:47;16.50;96.40
75321;DHT22;68337;52.196;5.660;2023-06-14T05:05:16;16.70;96.60
75321;DHT22;68337;52.196;5.660;2023-06-14T05:07:42;16.90;96.30
75321;DHT22;68337;52.196;5.660;2023-06-14T05:10:09;17.00;96.20
75321;DHT22;68337;52.196;5.660;2023-06-14T05:12:35;17.10;95.60
75321;DHT22;68337;52.196;5.660;2023-06-14T05:15:01;17.30;95.70
75321;DHT22;68337;52.196;5.660;2023-06-14T05:17:26;17.60;94.30
75321;DHT22;68337;52.196;5.660;2023-06-14T05:19:53;17.70;94.20
75321;DHT22;68337;52.196;5.660;2023-06-14T05:22:21;17.80;93.60
75321;DHT22;68337;52.196;5.660;2023-06-14T05:24:47;17.90;92.70
75321;DHT22;68337;52.196;5.660;2023-06-14T05:27:13;18.00;92.70
75321;DHT22;68337;52.196;5.660;2023-06-14T05:29:39;18.20;91.80
75321;DHT22;68337;52.196;5.660;2023-06-14T05:32:06;18.30;91.40
75321;DHT22;68337;52.196;5.660;2023-06-14T05:34:31;18.40;90.10
75321;DHT22;68337;52.196;5.660;2023-06-14T05:36:57;18.50;90.50
75321;DHT22;68337;52.196;5.660;2023-06-14T05:39:26;18.80;89.30
75321;DHT22;68337;52.196;5.660;2023-06-14T05:41:51;18.90;85.90
75321;DHT22;68337;52.196;5.660;2023-06-14T05:44:17;18.90;85.60
75321;DHT22;68337;52.196;5.660;2023-06-14T05:46:46;19.00;85.20
75321;DHT22;68337;52.196;5.660;2023-06-14T05:49:12;19.10;85.40
75321;DHT22;68337;52.196;5.660;2023-06-14T05:51:37;19.20;82.80
75321;DHT22;68337;52.196;5.660;2023-06-14T05:54:03;19.30;82.20
75321;DHT22;68337;52.196;5.660;2023-06-14T05:56:29;19.50;81.40
75321;DHT22;68337;52.196;5.660;2023-06-14T05:58:55;19.50;80.70
75321;DHT22;68337;52.196;5.660;2023-06-14T06:01:20;19.60;81.10
75321;DHT22;68337;52.196;5.660;2023-06-14T06:03:46;19.80;80.30
75321;DHT22;68337;52.196;5.660;2023-06-14T06:06:13;19.80;79.30
75321;DHT22;68337;52.196;5.660;2023-06-14T06:08:39;20.00;79.00
75321;DHT22;68337;52.196;5.660;2023-06-14T06:11:06;20.20;79.10
75321;DHT22;68337;52.196;5.660;2023-06-14T06:13:31;20.40;78.30
75321;DHT22;68337;52.196;5.660;2023-06-14T06:15:58;20.50;76.50
75321;DHT22;68337;52.196;5.660;2023-06-14T06:18:23;20.50;77.20
75321;DHT22;68337;52.196;5.660;2023-06-14T06:20:49;20.50;77.10
75321;DHT22;68337;52.196;5.660;2023-06-14T06:23:15;20.70;75.80
75321;DHT22;68337;52.196;5.660;2023-06-14T06:25:41;20.90;76.20
75321;DHT22;68337;52.196;5.660;2023-06-14T06:28:09;21.00;75.00
75321;DHT22;68337;52.196;5.660;2023-06-14T06:30:35;21.20;73.60
75321;DHT22;68337;52.196;5.660;2023-06-14T06:33:02;21.30;73.90
75321;DHT22;68337;52.196;5.660;2023-06-14T06:35:28;21.40;73.50
75321;DHT22;68337;52.196;5.660;2023-06-14T06:37:55;21.70;73.60
75321;DHT22;68337;52.196;5.660;2023-06-14T06:40:21;21.80;71.60
75321;DHT22;68337;52.196;5.660;2023-06-14T06:42:47;21.90;72.10
75321;DHT22;68337;52.196;5.660;2023-06-14T06:45:13;22.10;70.40
75321;DHT22;68337;52.196;5.660;2023-06-14T06:47:38;22.20;70.40
75321;DHT22;68337;52.196;5.660;2023-06-14T06:50:05;22.30;68.00
75321;DHT22;68337;52.196;5.660;2023-06-14T06:52:31;22.40;68.10
75321;DHT22;68337;52.196;5.660;2023-06-14T06:54:57;22.60;69.10
75321;DHT22;68337;52.196;5.660;2023-06-14T06:57:23;22.90;67.80
75321;DHT22;68337;52.196;5.660;2023-06-14T06:59:49;23.10;66.30
75321;DHT22;68337;52.196;5.660;2023-06-14T07:02:15;23.20;64.90
75321;DHT22;68337;52.196;5.660;2023-06-14T07:04:41;23.20;64.20
75321;DHT22;68337;52.196;5.660;2023-06-14T07:07:07;23.00;62.40
75321;DHT22;68337;52.196;5.660;2023-06-14T07:09:35;23.30;62.60
75321;DHT22;68337;52.196;5.660;2023-06-14T07:12:01;23.50;61.80
75321;DHT22;68337;52.196;5.660;2023-06-14T07:14:26;23.60;61.10
75321;DHT22;68337;52.196;5.660;2023-06-14T07:16:52;23.80;61.10
75321;DHT22;68337;52.196;5.660;2023-06-14T07:19:19;23.90;59.70
75321;DHT22;68337;52.196;5.660;2023-06-14T07:21:45;23.90;59.00
75321;DHT22;68337;52.196;5.660;2023-06-14T07:24:10;23.70;58.10
75321;DHT22;68337;52.196;5.660;2023-06-14T07:26:36;23.90;59.10
75321;DHT22;68337;52.196;5.660;2023-06-14T07:29:02;23.90;57.80
75321;DHT22;68337;52.196;5.660;2023-06-14T07:31:28;24.20;58.30
75321;DHT22;68337;52.196;5.660;2023-06-14T07:33:54;24.60;57.50
75321;DHT22;68337;52.196;5.660;2023-06-14T07:36:19;24.90;57.00
75321;DHT22;68337;52.196;5.660;2023-06-14T07:38:46;24.90;56.30
75321;DHT22;68337;52.196;5.660;2023-06-14T07:41:12;24.90;55.50
75321;DHT22;68337;52.196;5.660;2023-06-14T07:43:37;25.10;55.10
75321;DHT22;68337;52.196;5.660;2023-06-14T07:46:05;25.10;55.70
75321;DHT22;68337;52.196;5.660;2023-06-14T07:48:31;25.30;55.20
75321;DHT22;68337;52.196;5.660;2023-06-14T07:50:57;25.40;54.40
75321;DHT22;68337;52.196;5.660;2023-06-14T07:53:23;25.30;54.00
75321;DHT22;68337;52.196;5.660;2023-06-14T07:55:48;25.50;53.30
75321;DHT22;68337;52.196;5.660;2023-06-14T07:58:18;25.30;53.50
75321;DHT22;68337;52.196;5.660;2023-06-14T08:00:43;25.30;53.20
75321;DHT22;68337;52.196;5.660;2023-06-14T08:03:09;25.60;53.00
75321;DHT22;68337;52.196;5.660;2023-06-14T08:05:35;25.60;52.40
75321;DHT22;68337;52.196;5.660;2023-06-14T08:08:01;25.90;52.50
75321;DHT22;68337;52.196;5.660;2023-06-14T08:10:27;26.40;51.90
75321;DHT22;68337;52.196;5.660;2023-06-14T08:12:52;26.60;51.40
75321;DHT22;68337;52.196;5.660;2023-06-14T08:15:18;26.80;50.30
75321;DHT22;68337;52.196;5.660;2023-06-14T08:17:44;26.80;50.20
75321;DHT22;68337;52.196;5.660;2023-06-14T08:20:10;26.80;49.90
75321;DHT22;68337;52.196;5.660;2023-06-14T08:22:36;26.80;49.80
75321;DHT22;68337;52.196;5.660;2023-06-14T08:25:03;27.00;49.20
75321;DHT22;68337;52.196;5.660;2023-06-14T08:27:29;26.90;48.60
75321;DHT22;68337;52.196;5.660;2023-06-14T08:29:55;26.90;47.60
75321;DHT22;68337;52.196;5.660;2023-06-14T08:32:22;26.90;47.60
75321;DHT22;68337;52.196;5.660;2023-06-14T08:34:47;26.60;46.60
75321;DHT22;68337;52.196;5.660;2023-06-14T08:37:13;26.80;47.50
75321;DHT22;68337;52.196;5.660;2023-06-14T08:39:39;27.00;47.70
75321;DHT22;68337;52.196;5.660;2023-06-14T08:42:09;27.40;46.70
75321;DHT22;68337;52.196;5.660;2023-06-14T08:44:36;27.60;47.40
75321;DHT22;68337;52.196;5.660;2023-06-14T08:47:02;28.00;47.40
75321;DHT22;68337;52.196;5.660;2023-06-14T08:49:31;28.30;46.90
75321;DHT22;68337;52.196;5.660;2023-06-14T08:51:58;28.70;46.10
75321;DHT22;68337;52.196;5.660;2023-06-14T08:54:33;28.80;45.10
75321;DHT22;68337;52.196;5.660;2023-06-14T08:57:02;28.30;43.30
75321;DHT22;68337;52.196;5.660;2023-06-14T08:59:30;28.10;43.70
75321;DHT22;68337;52.196;5.660;2023-06-14T09:01:59;28.00;45.00
75321;DHT22;68337;52.196;5.660;2023-06-14T09:04:25;28.60;43.80
75321;DHT22;68337;52.196;5.660;2023-06-14T09:06:58;28.90;44.00
75321;DHT22;68337;52.196;5.660;2023-06-14T09:09:24;29.00;43.40
75321;DHT22;68337;52.196;5.660;2023-06-14T09:11:51;29.30;42.50
75321;DHT22;68337;52.196;5.660;2023-06-14T09:14:21;29.40;42.30
75321;DHT22;68337;52.196;5.660;2023-06-14T09:16:47;29.00;43.30
75321;DHT22;68337;52.196;5.660;2023-06-14T09:19:23;29.00;44.20
75321;DHT22;68337;52.196;5.660;2023-06-14T09:21:49;29.30;43.00
75321;DHT22;68337;52.196;5.660;2023-06-14T09:24:15;29.30;43.00
75321;DHT22;68337;52.196;5.660;2023-06-14T09:26:41;29.70;42.80
75321;DHT22;68337;52.196;5.660;2023-06-14T09:29:07;30.10;42.00
75321;DHT22;68337;52.196;5.660;2023-06-14T09:31:32;29.90;42.10
75321;DHT22;68337;52.196;5.660;2023-06-14T09:33:58;30.10;42.30
75321;DHT22;68337;52.196;5.660;2023-06-14T09:36:27;29.50;40.60
75321;DHT22;68337;52.196;5.660;2023-06-14T09:39:00;30.00;42.60
75321;DHT22;68337;52.196;5.660;2023-06-14T09:41:40;30.20;40.80
75321;DHT22;68337;52.196;5.660;2023-06-14T09:44:08;30.50;41.20
75321;DHT22;68337;52.196;5.660;2023-06-14T09:46:35;29.90;41.90
75321;DHT22;68337;52.196;5.660;2023-06-14T09:49:03;30.30;42.00
75321;DHT22;68337;52.196;5.660;2023-06-14T09:51:29;29.40;42.80
75321;DHT22;68337;52.196;5.660;2023-06-14T09:54:02;30.00;42.60
75321;DHT22;68337;52.196;5.660;2023-06-14T09:56:34;29.90;41.80
75321;DHT22;68337;52.196;5.660;2023-06-14T09:59:08;29.80;41.60
75321;DHT22;68337;52.196;5.660;2023-06-14T10:01:35;29.30;40.90
75321;DHT22;68337;52.196;5.660;2023-06-14T10:04:06;29.00;42.60
75321;DHT22;68337;52.196;5.660;2023-06-14T10:06:36;29.70;40.90
75321;DHT22;68337;52.196;5.660;2023-06-14T10:09:04;29.50;40.40
75321;DHT22;68337;52.196;5.660;2023-06-14T10:11:31;29.80;39.60
75321;DHT22;68337;52.196;5.660;2023-06-14T10:13:57;29.10;39.40
75321;DHT22;68337;52.196;5.660;2023-06-14T10:16:33;29.30;40.70
75321;DHT22;68337;52.196;5.660;2023-06-14T10:19:03;29.40;40.50
75321;DHT22;68337;52.196;5.660;2023-06-14T10:22:02;29.20;40.20
75321;DHT22;68337;52.196;5.660;2023-06-14T10:24:33;29.30;40.60
75321;DHT22;68337;52.196;5.660;2023-06-14T10:27:01;28.60;41.80
75321;DHT22;68337;52.196;5.660;2023-06-14T10:29:28;29.30;41.30
75321;DHT22;68337;52.196;5.660;2023-06-14T10:32:00;29.10;41.50
75321;DHT22;68337;52.196;5.660;2023-06-14T10:34:30;29.30;41.10
75321;DHT22;68337;52.196;5.660;2023-06-14T10:37:08;29.60;40.20
75321;DHT22;68337;52.196;5.660;2023-06-14T10:39:43;29.50;40.90
75321;DHT22;68337;52.196;5.660;2023-06-14T10:42:12;29.20;40.30
75321;DHT22;68337;52.196;5.660;2023-06-14T10:44:42;29.30;40.80
75321;DHT22;68337;52.196;5.660;2023-06-14T10:49:47;29.20;39.80
75321;DHT22;68337;52.196;5.660;2023-06-14T10:52:19;29.40;40.60
75321;DHT22;68337;52.196;5.660;2023-06-14T10:55:16;30.00;40.20
75321;DHT22;68337;52.196;5.660;2023-06-14T10:57:51;30.20;40.40
75321;DHT22;68337;52.196;5.660;2023-06-14T11:00:22;30.00;39.80
75321;DHT22;68337;52.196;5.660;2023-06-14T11:05:56;30.20;39.50
75321;DHT22;68337;52.196;5.660;2023-06-14T11:11:32;29.50;40.10
75321;DHT22;68337;52.196;5.660;2023-06-14T11:14:00;29.60;40.20
75321;DHT22;68337;52.196;5.660;2023-06-14T11:16:27;30.30;39.10
75321;DHT22;68337;52.196;5.660;2023-06-14T11:18:53;30.50;37.60
75321;DHT22;68337;52.196;5.660;2023-06-14T11:21:19;30.70;37.80
75321;DHT22;68337;52.196;5.660;2023-06-14T11:23:52;31.00;38.50
75321;DHT22;68337;52.196;5.660;2023-06-14T11:26:29;30.70;38.30
75321;DHT22;68337;52.196;5.660;2023-06-14T11:28:56;30.40;38.80
75321;DHT22;68337;52.196;5.660;2023-06-14T11:31:23;30.40;39.20
75321;DHT22;68337;52.196;5.660;2023-06-14T11:33:54;30.60;39.40
75321;DHT22;68337;52.196;5.660;2023-06-14T11:36:21;30.70;38.50
75321;DHT22;68337;52.196;5.660;2023-06-14T11:38:46;30.90;38.00
75321;DHT22;68337;52.196;5.660;2023-06-14T11:41:12;30.70;38.50
75321;DHT22;68337;52.196;5.660;2023-06-14T11:43:39;30.90;38.70
75321;DHT22;68337;52.196;5.660;2023-06-14T11:46:12;30.50;39.00
75321;DHT22;68337;52.196;5.660;2023-06-14T11:48:41;30.60;38.70
75321;DHT22;68337;52.196;5.660;2023-06-14T11:51:07;30.50;39.40
75321;DHT22;68337;52.196;5.660;2023-06-14T11:53:33;30.90;39.60
75321;DHT22;68337;52.196;5.660;2023-06-14T11:55:59;30.80;39.00
75321;DHT22;68337;52.196;5.660;2023-06-14T11:58:26;30.80;38.50
75321;DHT22;68337;52.196;5.660;2023-06-14T12:00:55;30.70;39.00
75321;DHT22;68337;52.196;5.660;2023-06-14T12:03:24;30.30;39.80
75321;DHT22;68337;52.196;5.660;2023-06-14T12:06:07;30.50;39.40
75321;DHT22;68337;52.196;5.660;2023-06-14T12:08:37;30.20;39.70
75321;DHT22;68337;52.196;5.660;2023-06-14T12:11:12;31.00;39.20
75321;DHT22;68337;52.196;5.660;2023-06-14T12:13:42;31.70;38.40
75321;DHT22;68337;52.196;5.660;2023-06-14T12:16:11;31.10;36.90
75321;DHT22;68337;52.196;5.660;2023-06-14T12:18:39;30.60;37.10
75321;DHT22;68337;52.196;5.660;2023-06-14T12:21:05;30.60;37.80
75321;DHT22;68337;52.196;5.660;2023-06-14T12:23:46;30.60;37.80
75321;DHT22;68337;52.196;5.660;2023-06-14T12:26:13;30.80;36.90
75321;DHT22;68337;52.196;5.660;2023-06-14T12:28:40;31.00;37.10
75321;DHT22;68337;52.196;5.660;2023-06-14T12:31:07;30.60;37.10
75321;DHT22;68337;52.196;5.660;2023-06-14T12:33:34;30.00;36.70
75321;DHT22;68337;52.196;5.660;2023-06-14T12:35:59;29.90;37.70
75321;DHT22;68337;52.196;5.660;2023-06-14T12:38:25;30.10;38.40
75321;DHT22;68337;52.196;5.660;2023-06-14T12:40:51;30.10;38.10
75321;DHT22;68337;52.196;5.660;2023-06-14T12:43:18;30.70;37.80
75321;DHT22;68337;52.196;5.660;2023-06-14T12:45:43;30.50;37.80
75321;DHT22;68337;52.196;5.660;2023-06-14T12:48:09;30.90;38.40
75321;DHT22;68337;52.196;5.660;2023-06-14T12:50:35;30.70;37.50
75321;DHT22;68337;52.196;5.660;2023-06-14T12:53:01;31.00;37.00
75321;DHT22;68337;52.196;5.660;2023-06-14T12:55:26;30.30;37.70
75321;DHT22;68337;52.196;5.660;2023-06-14T12:57:52;30.80;37.70
75321;DHT22;68337;52.196;5.660;2023-06-14T13:00:18;30.70;36.80
75321;DHT22;68337;52.196;5.660;2023-06-14T13:02:45;30.90;37.20
75321;DHT22;68337;52.196;5.660;2023-06-14T13:05:10;31.50;36.40
75321;DHT22;68337;52.196;5.660;2023-06-14T13:07:36;31.00;36.20
75321;DHT22;68337;52.196;5.660;2023-06-14T13:10:02;31.20;37.50
75321;DHT22;68337;52.196;5.660;2023-06-14T13:12:31;31.60;36.70
75321;DHT22;68337;52.196;5.660;2023-06-14T13:14:56;31.20;36.70
75321;DHT22;68337;52.196;5.660;2023-06-14T13:17:22;31.00;36.60
75321;DHT22;68337;52.196;5.660;2023-06-14T13:19:48;31.20;37.20
75321;DHT22;68337;52.196;5.660;2023-06-14T13:22:13;30.80;36.60
75321;DHT22;68337;52.196;5.660;2023-06-14T13:24:39;31.40;36.90
75321;DHT22;68337;52.196;5.660;2023-06-14T13:27:05;31.40;36.50
75321;DHT22;68337;52.196;5.660;2023-06-14T13:29:31;31.10;37.60
75321;DHT22;68337;52.196;5.660;2023-06-14T13:31:58;31.20;37.30
75321;DHT22;68337;52.196;5.660;2023-06-14T13:34:24;31.40;37.00
75321;DHT22;68337;52.196;5.660;2023-06-14T13:36:50;30.90;37.40
75321;DHT22;68337;52.196;5.660;2023-06-14T13:39:16;30.70;37.90
75321;DHT22;68337;52.196;5.660;2023-06-14T13:41:41;30.50;37.40
75321;DHT22;68337;52.196;5.660;2023-06-14T13:44:07;30.60;37.30
75321;DHT22;68337;52.196;5.660;2023-06-14T13:46:33;30.40;38.00
75321;DHT22;68337;52.196;5.660;2023-06-14T13:48:59;30.60;36.90
75321;DHT22;68337;52.196;5.660;2023-06-14T13:51:26;30.70;37.30
75321;DHT22;68337;52.196;5.660;2023-06-14T13:53:53;31.10;37.40
75321;DHT22;68337;52.196;5.660;2023-06-14T13:56:19;31.00;37.30
75321;DHT22;68337;52.196;5.660;2023-06-14T13:58:45;31.00;37.60
75321;DHT22;68337;52.196;5.660;2023-06-14T14:01:11;31.00;37.50
75321;DHT22;68337;52.196;5.660;2023-06-14T14:03:37;31.30;36.30
75321;DHT22;68337;52.196;5.660;2023-06-14T14:06:04;31.00;37.20
75321;DHT22;68337;52.196;5.660;2023-06-14T14:08:31;31.40;36.70
75321;DHT22;68337;52.196;5.660;2023-06-14T14:10:57;31.50;36.20
75321;DHT22;68337;52.196;5.660;2023-06-14T14:13:22;31.70;36.20
75321;DHT22;68337;52.196;5.660;2023-06-14T14:15:48;32.00;35.80
75321;DHT22;68337;52.196;5.660;2023-06-14T14:18:14;31.90;36.10
75321;DHT22;68337;52.196;5.660;2023-06-14T14:20:40;31.60;36.30
75321;DHT22;68337;52.196;5.660;2023-06-14T14:23:06;31.20;37.40
75321;DHT22;68337;52.196;5.660;2023-06-14T14:25:32;31.00;37.10
75321;DHT22;68337;52.196;5.660;2023-06-14T14:27:58;31.00;36.20
75321;DHT22;68337;52.196;5.660;2023-06-14T14:30:23;30.30;37.00
75321;DHT22;68337;52.196;5.660;2023-06-14T14:32:53;30.60;36.90
75321;DHT22;68337;52.196;5.660;2023-06-14T14:35:19;30.50;36.30
75321;DHT22;68337;52.196;5.660;2023-06-14T14:37:45;30.70;36.60
75321;DHT22;68337;52.196;5.660;2023-06-14T14:40:11;30.50;35.50
75321;DHT22;68337;52.196;5.660;2023-06-14T14:42:37;30.60;35.40
75321;DHT22;68337;52.196;5.660;2023-06-14T14:45:15;31.00;35.90
75321;DHT22;68337;52.196;5.660;2023-06-14T14:47:40;31.30;35.90
75321;DHT22;68337;52.196;5.660;2023-06-14T14:50:06;31.20;35.40
75321;DHT22;68337;52.196;5.660;2023-06-14T14:52:36;31.40;36.00
75321;DHT22;68337;52.196;5.660;2023-06-14T14:55:01;31.00;36.30
75321;DHT22;68337;52.196;5.660;2023-06-14T14:57:27;31.20;35.60
75321;DHT22;68337;52.196;5.660;2023-06-14T14:59:53;31.20;35.60
75321;DHT22;68337;52.196;5.660;2023-06-14T15:02:19;31.40;36.50
75321;DHT22;68337;52.196;5.660;2023-06-14T15:04:45;31.00;36.70
75321;DHT22;68337;52.196;5.660;2023-06-14T15:07:11;31.00;36.50
75321;DHT22;68337;52.196;5.660;2023-06-14T15:09:38;30.70;37.20
75321;DHT22;68337;52.196;5.660;2023-06-14T15:12:04;30.20;36.90
75321;DHT22;68337;52.196;5.660;2023-06-14T15:14:30;29.90;37.10
75321;DHT22;68337;52.196;5.660;2023-06-14T15:16:56;29.70;37.70
75321;DHT22;68337;52.196;5.660;2023-06-14T15:19:23;30.00;36.80
75321;DHT22;68337;52.196;5.660;2023-06-14T15:21:51;30.10;36.80
75321;DHT22;68337;52.196;5.660;2023-06-14T15:24:17;30.10;36.60
75321;DHT22;68337;52.196;5.660;2023-06-14T15:26:43;30.00;36.40
75321;DHT22;68337;52.196;5.660;2023-06-14T15:29:08;30.10;36.00
75321;DHT22;68337;52.196;5.660;2023-06-14T15:31:34;30.10;36.80
75321;DHT22;68337;52.196;5.660;2023-06-14T15:34:00;30.00;35.80
75321;DHT22;68337;52.196;5.660;2023-06-14T15:36:25;30.30;37.00
75321;DHT22;68337;52.196;5.660;2023-06-14T15:38:51;30.40;35.50